NCAR-RAP Real-Time Weather Data

Output produced by METARs form (14 October 2019  22:47 UTC)
found at http://weather.rap.ucar.edu/surface/
 
KATY 142153Z AUTO 13008KT 10SM CLR 12/02 A2979 RMK AO2 SLP103 T01170017
KATY 142053Z AUTO 10008G16KT 080V140 10SM CLR 12/02 A2979 RMK AO2 SLP098 T01170017 56033